This is the latest recevied weather packets stored in our database for station/object IV3CGM-13. If no packets are shown the sender has not sent any weather packets the latest 1 day(s).
| Time | Temp. | Humidity | Pressure | Rain* | Wind** | Luminosity | Snow |
|---|---|---|---|---|---|---|---|
| 1777962227 | 15.56° C | 72% | 1014.2 hPa | 0 mm | 1.34 m/s, 108° | 182 W/m² | - |
| 1777961490 | 15° C | 79% | 1014.2 hPa | 0 mm | 0.89 m/s, 246° | 156 W/m² | - |
| 1777960789 | 14.44° C | 80% | 1014.2 hPa | 0 mm | 0.89 m/s, 246° | 122 W/m² | - |
| 1777960103 | 13.89° C | 82% | 1014.2 hPa | 0 mm | 0.89 m/s, 246° | 74 W/m² | - |
| 1777959415 | 13.89° C | 83% | 1014 hPa | 0 mm | 0.89 m/s, 246° | 73 W/m² | - |
| 1777958727 | 13.89° C | 83% | 1014 hPa | 0 mm | 0.89 m/s, 180° | 73 W/m² | - |
| 1777957990 | 13.33° C | 83% | 1014 hPa | 0 mm | 0 m/s | 59 W/m² | - |
| 1777957289 | 12.78° C | 85% | 1013.9 hPa | 0 mm | 0 m/s | 46 W/m² | - |
| 1777956602 | 12.78° C | 84% | 1013.8 hPa | 0 mm | 0.89 m/s, 180° | 28 W/m² | - |
| 1777955915 | 12.78° C | 81% | 1013.9 hPa | 0 mm | 0 m/s | 19 W/m² | - |
| 1777955227 | 13.33° C | 82% | 1013.9 hPa | 0 mm | 1.34 m/s, 180° | 24 W/m² | - |
| 1777954491 | 13.33° C | 78% | 1013.7 hPa | 0 mm | 1.34 m/s, 300° | 17 W/m² | - |
| 1777953790 | 13.33° C | 81% | 1013.6 hPa | 0 mm | 0.89 m/s, 300° | 11 W/m² | - |
| 1777953103 | 12.78° C | 82% | 1013.7 hPa | 0 mm | 0.89 m/s, 300° | 5 W/m² | - |
| 1777952415 | 13.33° C | 80% | 1013.9 hPa | 0 mm | 0.89 m/s, 180° | 1 W/m² | - |
| 1777951727 | 13.89° C | 77% | 1013.9 hPa | 0 mm | 0.89 m/s, 180° | 0 W/m² | - |
| 1777950991 | 13.89° C | 75% | 1013.7 hPa | 0 mm | 0.89 m/s, 294° | 0 W/m² | - |
| 1777950290 | 13.89° C | 75% | 1013.9 hPa | 0 mm | 1.79 m/s, 348° | 0 W/m² | - |
| 1777949602 | 13.33° C | 76% | 1014 hPa | 0 mm | 1.79 m/s, 318° | 0 W/m² | - |
| 1777948914 | 12.78° C | 80% | 1014.1 hPa | 0 mm | 1.79 m/s, 324° | 0 W/m² | - |
| 1777948228 | 12.22° C | 82% | 1014.3 hPa | 0 mm | 1.34 m/s, 330° | 0 W/m² | - |
| 1777947491 | 12.22° C | 84% | 1014.5 hPa | 0 mm | 1.34 m/s, 289° | 0 W/m² | - |
| 1777946790 | 12.22° C | 85% | 1014.6 hPa | 0 mm | 1.34 m/s, 297° | 0 W/m² | - |
| 1777946102 | 12.22° C | 84% | 1014.8 hPa | 0 mm | 1.79 m/s, 297° | 0 W/m² | - |
* Rain latest hour (hover to see other rain measurements)
** Current wind speed in m/s (hover to see current wind gust speed)